Terminal Aerodrome Forecast
Issued by NWS

Home | Current Version | Previous Version | Text Only | Print | Product List | Glossary On
Versions: 1 2 3 4 5 6 7 8 9 10 11 12 13 14 15 16 17 18 19
000
FTAK31 PAJN 261759 AAA
TAFAPG
TAF AMD
PAPG 261759Z 2618/2718 10004KT 6SM -RA BR SCT002 BKN012 OVC018
      TEMPO 2618/2620 3SM -RA BR BKN002 OVC015
     FM262000 09004KT 4SM -RA SCT010 OVC014
     FM270300 00000KT 6SM -RA BR OVC025
      AMD LTD TO CLD VIS AND WIND 2706/2715=

USA.gov is the U.S. government's official web portal to all federal, state and local government web resources and services.